Data for 05/06/2015

Time Sea-Level Adjusted Pressure Absolute Pressure Temperature Relative Humidity Dew Point   
(mb) (inHg) (mb) (inHg) (C) (F) (%) (C) (F)
00:05 1013 29.91 842 24.86 9.4 49 75 5.2 41.3
00:10 1013 29.91 842 24.86 9.5 49.1 74 5.1 41.1
00:15 1013 29.91 842 24.86 9.5 49.1 73 5 41.1
00:20 1013 29.91 842 24.86 9.5 49.1 73 5 40.9
00:25 1013 29.91 842 24.86 9.5 49.1 74 5.1 41.2
00:30 1013 29.91 842 24.86 9.5 49.1 75 5.3 41.5
00:35 1013 29.91 842 24.86 9.4 49 74 5.1 41.2
00:40 1013 29.91 842 24.86 9.4 48.9 74 5 41.1
00:45 1013 29.91 842 24.86 9.5 49 75 5.2 41.3
00:50 1013 29.91 842 24.86 9.5 49.1 74 5.1 41.3
00:55 1013 29.91 842 24.86 9.5 49.2 73 5 40.9
01:00 1013 29.91 842 24.86 9.5 49.1 73 4.9 40.7
01:05 1013 29.91 842 24.86 9.4 49 73 4.9 40.8
01:10 1013 29.91 842 24.86 9.4 48.9 74 4.9 40.9
01:15 1013 29.91 842 24.86 9.3 48.8 74 4.9 40.8
01:20 1013 29.91 842 24.86 9.2 48.6 75 5 41
01:25 1013 29.91 842 24.86 9.2 48.5 75 5 41
01:30 1013 29.91 842 24.86 9.1 48.3 75 4.9 40.8
01:35 1013 29.91 842 24.86 9 48.3 76 5 41
01:40 1013 29.91 842 24.86 9 48.1 76 5 41.1
01:45 1013 29.91 842 24.86 8.9 48.1 73 4.5 40
01:50 1013 29.91 842 24.86 8.9 47.9 71 3.9 38.9
01:55 1013 29.91 842 24.86 8.8 47.9 69 3.4 38.2
02:00 1013 29.91 842 24.86 8.7 47.6 68 3.1 37.6
02:05 1013 29.91 842 24.86 8.6 47.4 67 2.9 37.2
02:10 1013 29.91 842 24.86 8.5 47.2 66 2.6 36.7
02:15 1013 29.91 842 24.86 8.4 47.2 67 2.7 36.8
02:20 1013 29.91 842 24.86 8.5 47.3 67 2.7 36.9
02:25 1013 29.91 842 24.86 8.4 47.1 68 2.8 37.1
02:30 1013 29.91 842 24.86 8.2 46.8 68 2.7 36.8
02:35 1013 29.91 842 24.86 8.2 46.8 67 2.5 36.4
02:40 1013 29.91 842 24.86 8.1 46.7 67 2.4 36.2
02:45 1013 29.91 842 24.86 8.2 46.7 66 2.3 36.1
02:50 1013 29.91 842 24.86 8.2 46.8 66 2.2 36
02:55 1013 29.91 842 24.86 8.2 46.8 66 2.3 36.1
03:00 1013 29.91 842 24.86 8.2 46.7 66 2.3 36.1
03:05 1013 29.91 842 24.86 8.1 46.6 66 2.2 35.9
03:10 1013 29.91 842 24.86 8.2 46.7 65 2 35.6
03:15 1013 29.91 842 24.86 8.2 46.8 65 2 35.6
03:20 1013 29.91 842 24.86 8.3 46.9 64 1.8 35.3
03:25 1013 29.91 842 24.86 8.2 46.8 63 1.7 35.1
03:30 1013 29.91 842 24.86 8.2 46.7 62 1.4 34.5
03:35 1013 29.91 842 24.86 8.1 46.6 63 1.4 34.6
03:40 1013 29.91 842 24.86 8 46.5 63 1.5 34.6
03:45 1013 29.91 842 24.86 8 46.4 63 1.3 34.4
03:50 1013 29.91 842 24.86 8 46.3 64 1.5 34.7
03:55 1013 29.91 842 24.86 7.9 46.1 63 1.4 34.5
04:00 1013 29.91 842 24.86 7.7 45.9 64 1.3 34.4
04:05 1013 29.91 842 24.86 7.7 45.8 64 1.4 34.4
04:10 1013 29.91 843 24.89 7.6 45.6 65 1.4 34.4
04:15 1013 29.91 843 24.89 7.5 45.5 64 1.2 34.2
04:20 1013 29.91 843 24.89 7.3 45.2 64 1 33.8
04:25 1013 29.91 843 24.89 7.2 45 63 0.7 33.2
04:30 1013 29.91 843 24.89 7.1 44.8 62 0.4 32.7
04:35 1014 29.94 843 24.89 7 44.6 62 0.2 32.3
04:40 1014 29.94 843 24.89 6.8 44.3 62 0.1 32.3
04:45 1014 29.94 843 24.89 6.7 44.1 65 0.6 33
04:50 1014 29.94 843 24.89 6.5 43.8 66 0.6 33.2
04:55 1014 29.94 843 24.89 6.4 43.5 66 0.6 33.1
05:00 1014 29.94 843 24.89 6.3 43.3 65 0.2 32.4
05:05 1014 29.94 843 24.89 6.1 43.1 66 0.3 32.5
05:10 1014 29.94 843 24.89 6.1 43 67 0.4 32.6
05:15 1014 29.94 843 24.89 6.1 42.9 67 0.4 32.7
05:20 1014 29.94 843 24.89 6 42.8 67 0.4 32.7
05:25 1014 29.94 843 24.89 6 42.8 67 0.4 32.8
05:30 1014 29.94 843 24.89 5.9 42.7 68 0.4 32.8
05:35 1014 29.94 843 24.89 6 42.8 68 0.6 33
05:40 1014 29.94 843 24.89 5.9 42.5 69 0.6 33.1
05:45 1014 29.94 843 24.89 5.7 42.3 70 0.6 33.1
05:50 1014 29.94 843 24.89 5.5 41.9 72 0.9 33.6
05:55 1014 29.94 844 24.92 5.4 41.7 73 1 33.9
06:00 1014 29.94 844 24.92 5.3 41.5 75 1.1 34.1
06:05 1014 29.94 844 24.92 5.2 41.3 76 1.2 34.2
06:10 1014 29.94 844 24.92 5.1 41.1 77 1.4 34.5
06:15 1014 29.94 844 24.92 5 41 77 1.3 34.3
06:20 1015 29.97 844 24.92 5 41 76 1.1 34
06:25 1015 29.97 844 24.92 5 41 76 1.1 34
06:30 1015 29.97 844 24.92 5.1 41.2 75 1.1 33.9
06:35 1015 29.97 844 24.92 5.2 41.3 75 1 33.9
06:40 1015 29.97 844 24.92 5.1 41.2 76 1.2 34.2
06:45 1015 29.97 844 24.92 5 41.1 77 1.3 34.4
06:50 1015 29.97 844 24.92 5 41 75 1 33.7
06:55 1015 29.97 844 24.92 5 41 76 1.1 33.9
07:00 1015 29.97 844 24.92 4.9 40.9 77 1.3 34.3
07:05 1015 29.97 844 24.92 4.8 40.6 79 1.4 34.5
07:10 1015 29.97 844 24.92 4.7 40.5 79 1.4 34.6
07:15 1015 29.97 844 24.92 4.7 40.5 77 1.1 34
07:20 1015 29.97 844 24.92 4.7 40.5 78 1.2 34.2
07:25 1015 29.97 844 24.92 4.7 40.5 78 1.2 34.1
07:30 1015 29.97 844 24.92 4.7 40.5 78 1.1 34
07:35 1015 29.97 844 24.92 4.6 40.3 78 1.2 34.2
07:40 1015 29.97 844 24.92 4.7 40.4 77 0.9 33.7
07:45 1015 29.97 844 24.92 4.4 40 78 0.9 33.6
07:50 1015 29.97 844 24.92 4.4 39.9 78 1 33.8
07:55 1015 29.97 844 24.92 4.6 40.3 77 1 33.8
08:00 1015 29.97 844 24.92 4.8 40.6 78 1.3 34.3
08:05 1015 29.97 844 24.92 5 41.1 76 1.1 34
08:10 1015 29.97 844 24.92 5.2 41.4 74 1 33.8
08:15 1015 29.97 844 24.92 5.3 41.6 74 1.1 34
08:20 1015 29.97 844 24.92 5.5 41.9 73 0.9 33.7
08:25 1015 29.97 844 24.92 5.7 42.3 70 0.6 33.2
08:30 1015 29.97 844 24.92 6 42.8 68 0.5 32.9
08:35 1015 29.97 844 24.92 6.2 43.2 67 0.6 33
08:40 1015 29.97 844 24.92 6.1 43 68 0.7 33.2
08:45 1015 29.97 844 24.92 5.9 42.6 70 0.8 33.5
08:50 1015 29.97 844 24.92 6.2 43.2 68 0.7 33.3
08:55 1015 29.97 844 24.92 6.4 43.5 69 1.1 33.9
09:00 1015 29.97 844 24.92 6.6 43.8 68 1.2 34.1
09:05 1015 29.97 844 24.92 6.6 43.9 68 1.2 34.1
09:10 1015 29.97 844 24.92 6.4 43.5 69 1.1 34.1
09:15 1015 29.97 844 24.92 6.7 44 67 1 33.8
09:20 1015 29.97 844 24.92 6.8 44.3 67 1.2 34.1
09:25 1015 29.97 844 24.92 6.6 43.8 67 0.8 33.5
09:30 1015 29.97 844 24.92 6.8 44.3 66 1 33.7
09:35 1015 29.97 844 24.92 7.1 44.7 66 1.2 34.1
09:40 1015 29.97 844 24.92 7.2 44.9 65 1.1 34
09:45 1015 29.97 844 24.92 6.5 43.8 67 0.8 33.4
09:50 1015 29.97 844 24.92 6.7 44.1 66 0.8 33.5
09:55 1015 29.97 844 24.92 7 44.6 64 0.6 33.1
10:00 1015 29.97 844 24.92 6.6 43.9 66 0.8 33.4
10:05 1015 29.97 844 24.92 6.3 43.3 64 0.1 32.1
10:10 1015 29.97 844 24.92 6.7 44 63 0.1 32.2
10:15 1015 29.97 844 24.92 6.7 44.1 64 0.3 32.6
10:20 1015 29.97 844 24.92 6.4 43.4 61 -0.5 31.1
10:25 1015 29.97 844 24.92 6.8 44.2 62 0.1 32.1
10:30 1015 29.97 844 24.92 6.2 43.2 65 0.2 32.4
10:35 1015 29.97 844 24.92 6.8 44.2 62 0.1 32.2
10:40 1015 29.97 844 24.92 7.2 44.9 60 0 32.1
10:45 1015 29.97 844 24.92 7.4 45.2 60 0.1 32.2
10:50 1015 29.97 844 24.92 7.8 46.1 57 -0.1 31.9
10:55 1015 29.97 844 24.92 7.5 45.5 58 -0.1 31.8
11:00 1015 29.97 844 24.92 7.7 45.9 60 0.4 32.7
11:05 1015 29.97 844 24.92 7.9 46.2 58 0.1 32.2
11:10 1015 29.97 844 24.92 8.1 46.5 57 0.1 32.1
11:15 1015 29.97 844 24.92 8.1 46.5 58 0.3 32.6
11:20 1015 29.97 844 24.92 7.7 45.9 59 0.3 32.5
11:25 1015 29.97 844 24.92 7.9 46.2 58 0.2 32.3
11:30 1015 29.97 844 24.92 7.8 46 59 0.2 32.3
11:35 1015 29.97 844 24.92 7.9 46.1 58 0.1 32.2
11:40 1015 29.97 844 24.92 7.8 46.1 58 0.1 32.3
11:45 1015 29.97 844 24.92 7.7 45.8 60 0.4 32.7
11:50 1015 29.97 844 24.92 7.4 45.4 60 0.2 32.4
11:55 1015 29.97 844 24.92 7.5 45.5 60 0.2 32.3
12:00 1015 29.97 844 24.92 7.7 45.9 59 0.2 32.4
12:05 1015 29.97 844 24.92 7.9 46.3 58 0.2 32.3
12:10 1015 29.97 844 24.92 8 46.3 59 0.6 33
12:15 1015 29.97 844 24.92 7.9 46.2 59 0.4 32.7
12:20 1015 29.97 844 24.92 8.1 46.5 57 -0 32
12:25 1015 29.97 844 24.92 7.7 45.9 59 0.3 32.5
12:30 1014 29.94 844 24.92 8 46.4 58 0.2 32.4
12:35 1014 29.94 844 24.92 8.6 47.5 53 -0.3 31.5
12:40 1014 29.94 844 24.92 9.5 49.1 51 -0.1 31.8
12:45 1014 29.94 844 24.92 8.9 48.1 55 0.4 32.7
12:50 1014 29.94 844 24.92 9.8 49.6 48 -0.6 31
12:55 1014 29.94 844 24.92 10.5 50.9 49 0.3 32.5
13:00 1014 29.94 843 24.89 10.2 50.3 50 0.1 32.3
13:05 1014 29.94 843 24.89 10.4 50.8 47 -0.3 31.5
13:10 1014 29.94 843 24.89 10.6 51.1 47 -0.1 31.8
13:15 1014 29.94 843 24.89 10.5 50.9 50 0.4 32.8
13:20 1014 29.94 843 24.89 10.5 50.9 48 0.1 32.1
13:25 1014 29.94 843 24.89 10.8 51.4 46 -0.3 31.5
13:30 1014 29.94 843 24.89 11.5 52.7 46 0.3 32.5
13:35 1014 29.94 843 24.89 11.6 52.8 45 0 32.1
13:40 1014 29.94 843 24.89 11.6 52.8 44 -0.2 31.6
13:45 1014 29.94 843 24.89 11.8 53.3 43 -0.3 31.4
13:50 1014 29.94 843 24.89 11.5 52.7 46 0.3 32.5
13:55 1014 29.94 843 24.89 10.9 51.6 47 -0 31.9
14:00 1014 29.94 843 24.89 10.6 51 48 0 32
14:05 1014 29.94 843 24.89 10 50 49 -0.3 31.4
14:10 1014 29.94 843 24.89 10.6 51.1 45 -0.8 30.6
14:15 1014 29.94 843 24.89 11.3 52.3 45 -0.1 31.8
14:20 1014 29.94 843 24.89 11 51.9 44 -0.6 31
14:25 1014 29.94 843 24.89 11.4 52.5 43 -0.6 31
14:30 1013 29.91 843 24.89 11.5 52.7 43 -0.7 30.7
14:35 1013 29.91 843 24.89 12 53.6 43 0 32
14:40 1013 29.91 843 24.89 11.6 52.8 42 -0.7 30.7
14:45 1013 29.91 842 24.86 12.6 54.6 39 -1 30.2
14:50 1013 29.91 842 24.86 12.8 55 41 -0 32
14:55 1013 29.91 842 24.86 12.6 54.6 39 -0.8 30.5
15:00 1013 29.91 842 24.86 12.9 55.1 40 -0.2 31.6
15:05 1013 29.91 842 24.86 11.9 53.3 43 -0.3 31.4
15:10 1013 29.91 842 24.86 12.2 54 42 -0.4 31.3
15:15 1013 29.91 842 24.86 12.4 54.2 40 -1 30.2
15:20 1013 29.91 842 24.86 13.1 55.7 40 -0.1 31.8
15:25 1013 29.91 842 24.86 13.4 56.2 38 -0.6 30.9
15:30 1013 29.91 842 24.86 13.7 56.6 38 -0.4 31.3
15:35 1013 29.91 842 24.86 14 57.2 37 -0.5 31.2
15:40 1013 29.91 842 24.86 13.8 56.8 38 -0.2 31.7
15:45 1013 29.91 842 24.86 13.3 56 40 0.1 32.2
15:50 1013 29.91 842 24.86 13.2 55.7 40 -0.1 31.8
15:55 1013 29.91 842 24.86 12.6 54.6 43 0.5 32.8
16:00 1012 29.88 842 24.86 11.8 53.2 43 -0.2 31.6
16:05 1012 29.88 842 24.86 11.3 52.4 44 -0.5 31.2
16:10 1012 29.88 842 24.86 11.3 52.3 45 -0.1 31.8
16:15 1012 29.88 842 24.86 11.5 52.7 46 0.3 32.6
16:20 1012 29.88 841 24.83 11.3 52.3 48 0.7 33.3
16:25 1012 29.88 841 24.83 10.8 51.4 49 0.6 33.1
16:30 1012 29.88 841 24.83 10.5 50.9 50 0.4 32.8
16:35 1012 29.88 841 24.83 10.8 51.4 49 0.6 33.1
16:40 1012 29.88 841 24.83 10.7 51.3 49 0.6 33
16:45 1012 29.88 841 24.83 11.2 52.2 48 0.7 33.3
16:50 1012 29.88 841 24.83 10.9 51.6 50 0.9 33.6
16:55 1012 29.88 841 24.83 10.6 51.1 50 0.7 33.3
17:00 1012 29.88 841 24.83 10.5 50.8 51 0.7 33.3
17:05 1012 29.88 841 24.83 10.3 50.6 50 0.5 32.9
17:10 1012 29.88 841 24.83 10.2 50.3 51 0.5 33
17:15 1012 29.88 842 24.86 10.3 50.5 51 0.6 33.1
17:20 1012 29.88 842 24.86 10.2 50.3 51 0.5 32.9
17:25 1012 29.88 842 24.86 10.1 50.2 51 0.5 32.9
17:30 1012 29.88 842 24.86 9.9 49.9 51 0.4 32.7
17:35 1012 29.88 842 24.86 10 49.9 51 0.3 32.5
17:40 1012 29.88 842 24.86 9.8 49.6 51 0.1 32.2
17:45 1012 29.88 842 24.86 9.7 49.5 51 0 32
17:50 1012 29.88 842 24.86 9.6 49.3 51 -0 32
17:55 1012 29.88 842 24.86 9.4 49 51 -0.2 31.6
18:00 1012 29.88 842 24.86 9.4 48.9 51 -0.3 31.4
18:05 1012 29.88 842 24.86 9.3 48.7 51 -0.4 31.3
18:10 1012 29.88 842 24.86 9.3 48.7 51 -0.3 31.4
18:15 1012 29.88 842 24.86 9.2 48.6 49 -0.9 30.4
18:20 1012 29.88 842 24.86 9.2 48.5 49 -1 30.2
18:25 1012 29.88 842 24.86 9.2 48.5 49 -0.9 30.3
18:30 1013 29.91 842 24.86 9.1 48.4 49 -0.9 30.3
18:35 1013 29.91 842 24.86 9.1 48.4 49 -0.9 30.3
18:40 1013 29.91 842 24.86 9 48.2 50 -0.9 30.5
18:45 1013 29.91 842 24.86 8.9 48.1 49 -1.1 30.1
18:50 1013 29.91 842 24.86 8.9 48 50 -1 30.2
18:55 1013 29.91 842 24.86 8.9 48 50 -0.9 30.3
19:00 1013 29.91 842 24.86 8.9 47.9 50 -1.1 30.1
19:05 1013 29.91 842 24.86 8.8 47.9 49 -1.2 29.9
19:10 1013 29.91 842 24.86 8.8 47.9 49 -1.4 29.5
19:15 1013 29.91 842 24.86 8.9 47.9 47 -1.9 28.7
19:20 1013 29.91 842 24.86 8.8 47.9 46 -2 28.3
19:25 1013 29.91 842 24.86 8.8 47.8 46 -2 28.4
19:30 1013 29.91 842 24.86 8.7 47.7 47 -2 28.5
19:35 1013 29.91 842 24.86 8.7 47.6 47 -2 28.3
19:40 1013 29.91 842 24.86 8.6 47.4 48 -1.8 28.8
19:45 1013 29.91 842 24.86 8.5 47.2 48 -1.8 28.8
19:50 1013 29.91 842 24.86 8.4 47.1 48 -1.9 28.5
19:55 1013 29.91 842 24.86 8.3 47 48 -1.9 28.5
20:00 1013 29.91 842 24.86 8.3 46.9 48 -2 28.5
20:05 1013 29.91 842 24.86 8.2 46.8 49 -2 28.5
20:10 1013 29.91 842 24.86 8.1 46.6 49 -2 28.3
20:15 1013 29.91 842 24.86 8.1 46.6 47 -2.5 27.6
20:20 1013 29.91 843 24.89 8.1 46.6 48 -2.4 27.8
20:25 1013 29.91 843 24.89 8.1 46.5 47 -2.6 27.3
20:30 1014 29.94 843 24.89 8.1 46.5 47 -2.6 27.4
20:35 1014 29.94 843 24.89 8.1 46.5 47 -2.6 27.3
20:40 1014 29.94 843 24.89 8 46.5 47 -2.7 27.2
20:45 1014 29.94 843 24.89 8 46.4 47 -2.7 27.2
20:50 1014 29.94 843 24.89 8 46.4 47 -2.6 27.4
20:55 1014 29.94 843 24.89 7.9 46.3 48 -2.5 27.5
21:00 1014 29.94 843 24.89 7.9 46.2 48 -2.5 27.6
21:05 1014 29.94 843 24.89 7.8 46.1 48 -2.4 27.7
21:10 1014 29.94 843 24.89 7.8 46 49 -2.4 27.8
21:15 1014 29.94 843 24.89 7.7 45.9 49 -2.3 27.8
21:20 1014 29.94 843 24.89 7.7 45.8 49 -2.4 27.7
21:25 1014 29.94 843 24.89 7.6 45.7 49 -2.4 27.7
21:30 1014 29.94 843 24.89 7.6 45.6 49 -2.3 27.8
21:35 1014 29.94 843 24.89 7.5 45.5 50 -2.4 27.7
21:40 1014 29.94 843 24.89 7.5 45.4 50 -2.3 27.8
21:45 1014 29.94 843 24.89 7.5 45.4 50 -2.4 27.7
21:50 1014 29.94 843 24.89 7.5 45.4 50 -2.4 27.7
21:55 1014 29.94 843 24.89 7.5 45.6 49 -2.4 27.7
22:00 1014 29.94 843 24.89 7.6 45.6 49 -2.3 27.8
22:05 1014 29.94 843 24.89 7.6 45.6 50 -2.2 28
22:10 1014 29.94 843 24.89 7.6 45.7 50 -2.3 27.9
22:15 1014 29.94 843 24.89 7.6 45.7 50 -2.3 27.9
22:20 1014 29.94 843 24.89 7.6 45.7 50 -2.2 28.1
22:25 1014 29.94 843 24.89 7.6 45.8 49 -2.2 28
22:30 1014 29.94 843 24.89 7.7 45.9 50 -2.1 28.2
22:35 1014 29.94 843 24.89 7.7 45.8 50 -2.1 28.2
22:40 1014 29.94 843 24.89 7.7 45.8 50 -2 28.3
22:45 1014 29.94 843 24.89 7.6 45.7 51 -1.9 28.5
22:50 1014 29.94 843 24.89 7.6 45.7 51 -1.9 28.6
22:55 1014 29.94 843 24.89 7.5 45.6 51 -1.9 28.6
23:00 1014 29.94 843 24.89 7.5 45.6 51 -1.9 28.5
23:05 1014 29.94 843 24.89 7.5 45.5 51 -1.9 28.6
23:10 1014 29.94 843 24.89 7.5 45.5 52 -1.8 28.7
23:15 1014 29.94 844 24.92 7.5 45.4 52 -1.7 28.9
23:20 1014 29.94 844 24.92 7.5 45.5 52 -1.7 29
23:25 1015 29.97 844 24.92 7.4 45.4 53 -1.6 29.1
23:30 1015 29.97 844 24.92 7.4 45.3 54 -1.4 29.5
23:35 1015 29.97 844 24.92 7.3 45.1 54 -1.3 29.6
23:40 1015 29.97 844 24.92 7.3 45.1 53 -1.6 29.1
23:45 1015 29.97 844 24.92 7.2 45 53 -1.8 28.7
23:50 1015 29.97 844 24.92 7.2 45 52 -2 28.4
23:55 1015 29.97 844 24.92 7.2 45 52 -2.1 28.2
24:00 1015 29.97 844 24.92 7.2 45 51 -2.3 27.8